sensor_id;sensor_type;location;lat;lon;timestamp;P1;durP1;ratioP1;P2;durP2;ratioP2
59434;SDS011;45241;49.768;8.636;2023-03-23T00:00:54;3.00;;;0.93;;
59434;SDS011;45241;49.768;8.636;2023-03-23T00:03:20;1.60;;;0.93;;
59434;SDS011;45241;49.768;8.636;2023-03-23T00:05:46;2.05;;;0.95;;
59434;SDS011;45241;49.768;8.636;2023-03-23T00:08:15;3.65;;;1.08;;
59434;SDS011;45241;49.768;8.636;2023-03-23T00:10:41;1.77;;;0.75;;
59434;SDS011;45241;49.768;8.636;2023-03-23T00:13:06;1.40;;;0.80;;
59434;SDS011;45241;49.768;8.636;2023-03-23T00:15:32;1.58;;;0.90;;
59434;SDS011;45241;49.768;8.636;2023-03-23T00:17:58;1.52;;;0.93;;
59434;SDS011;45241;49.768;8.636;2023-03-23T00:20:29;2.17;;;1.10;;
59434;SDS011;45241;49.768;8.636;2023-03-23T00:22:55;2.10;;;0.90;;
59434;SDS011;45241;49.768;8.636;2023-03-23T00:25:25;1.38;;;0.80;;
59434;SDS011;45241;49.768;8.636;2023-03-23T00:27:50;1.50;;;0.80;;
59434;SDS011;45241;49.768;8.636;2023-03-23T00:30:15;2.67;;;0.82;;
59434;SDS011;45241;49.768;8.636;2023-03-23T00:32:42;2.70;;;0.90;;
59434;SDS011;45241;49.768;8.636;2023-03-23T00:35:08;2.00;;;0.80;;
59434;SDS011;45241;49.768;8.636;2023-03-23T00:37:33;1.15;;;0.88;;
59434;SDS011;45241;49.768;8.636;2023-03-23T00:40:00;2.05;;;0.90;;
59434;SDS011;45241;49.768;8.636;2023-03-23T00:42:26;3.97;;;1.20;;
59434;SDS011;45241;49.768;8.636;2023-03-23T00:44:53;1.00;;;0.70;;
59434;SDS011;45241;49.768;8.636;2023-03-23T00:47:25;1.10;;;0.90;;
59434;SDS011;45241;49.768;8.636;2023-03-23T00:49:50;2.55;;;0.73;;
59434;SDS011;45241;49.768;8.636;2023-03-23T00:52:17;2.90;;;0.80;;
59434;SDS011;45241;49.768;8.636;2023-03-23T00:54:42;0.95;;;0.73;;
59434;SDS011;45241;49.768;8.636;2023-03-23T00:57:07;1.48;;;1.08;;
59434;SDS011;45241;49.768;8.636;2023-03-23T00:59:34;2.20;;;1.15;;
59434;SDS011;45241;49.768;8.636;2023-03-23T01:01:59;2.70;;;1.10;;
59434;SDS011;45241;49.768;8.636;2023-03-23T01:04:25;2.13;;;1.40;;
59434;SDS011;45241;49.768;8.636;2023-03-23T01:06:53;1.42;;;0.90;;
59434;SDS011;45241;49.768;8.636;2023-03-23T01:09:19;2.75;;;1.10;;
59434;SDS011;45241;49.768;8.636;2023-03-23T01:11:47;2.13;;;1.00;;
59434;SDS011;45241;49.768;8.636;2023-03-23T01:14:14;1.55;;;1.00;;
59434;SDS011;45241;49.768;8.636;2023-03-23T01:16:40;1.98;;;1.17;;
59434;SDS011;45241;49.768;8.636;2023-03-23T01:19:06;1.10;;;0.90;;
59434;SDS011;45241;49.768;8.636;2023-03-23T01:21:32;1.40;;;1.00;;
59434;SDS011;45241;49.768;8.636;2023-03-23T01:23:57;1.45;;;0.93;;
59434;SDS011;45241;49.768;8.636;2023-03-23T01:26:23;1.55;;;1.00;;
59434;SDS011;45241;49.768;8.636;2023-03-23T01:28:50;1.35;;;0.90;;
59434;SDS011;45241;49.768;8.636;2023-03-23T01:31:21;1.63;;;1.00;;
59434;SDS011;45241;49.768;8.636;2023-03-23T01:33:49;1.80;;;0.90;;
59434;SDS011;45241;49.768;8.636;2023-03-23T01:36:23;2.78;;;0.90;;
59434;SDS011;45241;49.768;8.636;2023-03-23T01:38:54;1.90;;;0.90;;
59434;SDS011;45241;49.768;8.636;2023-03-23T01:41:20;1.80;;;0.90;;
59434;SDS011;45241;49.768;8.636;2023-03-23T01:46:32;1.33;;;0.90;;
59434;SDS011;45241;49.768;8.636;2023-03-23T01:49:09;1.83;;;1.13;;
59434;SDS011;45241;49.768;8.636;2023-03-23T01:51:40;2.30;;;1.73;;
59434;SDS011;45241;49.768;8.636;2023-03-23T01:54:11;1.20;;;0.90;;
59434;SDS011;45241;49.768;8.636;2023-03-23T01:56:44;2.88;;;1.00;;
59434;SDS011;45241;49.768;8.636;2023-03-23T01:59:12;2.53;;;0.88;;
59434;SDS011;45241;49.768;8.636;2023-03-23T02:01:38;3.70;;;1.02;;
59434;SDS011;45241;49.768;8.636;2023-03-23T02:04:10;1.80;;;1.10;;
59434;SDS011;45241;49.768;8.636;2023-03-23T02:06:37;3.45;;;1.33;;
59434;SDS011;45241;49.768;8.636;2023-03-23T02:09:02;1.08;;;0.90;;
59434;SDS011;45241;49.768;8.636;2023-03-23T02:11:31;2.42;;;0.93;;
59434;SDS011;45241;49.768;8.636;2023-03-23T02:13:56;1.30;;;0.80;;
59434;SDS011;45241;49.768;8.636;2023-03-23T02:22:32;1.85;;;1.08;;
59434;SDS011;45241;49.768;8.636;2023-03-23T02:31:21;1.73;;;1.00;;
59434;SDS011;45241;49.768;8.636;2023-03-23T02:34:16;1.98;;;1.10;;
59434;SDS011;45241;49.768;8.636;2023-03-23T02:37:02;1.95;;;1.02;;
59434;SDS011;45241;49.768;8.636;2023-03-23T02:39:40;2.47;;;0.90;;
59434;SDS011;45241;49.768;8.636;2023-03-23T02:42:19;3.30;;;1.00;;
59434;SDS011;45241;49.768;8.636;2023-03-23T02:44:47;2.50;;;0.90;;
59434;SDS011;45241;49.768;8.636;2023-03-23T02:47:16;2.58;;;1.00;;
59434;SDS011;45241;49.768;8.636;2023-03-23T02:49:45;2.00;;;0.80;;
59434;SDS011;45241;49.768;8.636;2023-03-23T02:52:14;1.65;;;1.10;;
59434;SDS011;45241;49.768;8.636;2023-03-23T02:54:44;1.30;;;1.02;;
59434;SDS011;45241;49.768;8.636;2023-03-23T02:57:12;3.38;;;1.05;;
59434;SDS011;45241;49.768;8.636;2023-03-23T02:59:38;1.05;;;0.90;;
59434;SDS011;45241;49.768;8.636;2023-03-23T03:02:09;1.13;;;0.90;;
59434;SDS011;45241;49.768;8.636;2023-03-23T03:07:43;1.58;;;1.17;;
59434;SDS011;45241;49.768;8.636;2023-03-23T03:12:46;1.40;;;0.80;;
59434;SDS011;45241;49.768;8.636;2023-03-23T03:15:25;1.60;;;1.08;;
59434;SDS011;45241;49.768;8.636;2023-03-23T03:20:48;1.75;;;0.95;;
59434;SDS011;45241;49.768;8.636;2023-03-23T03:23:18;1.10;;;0.63;;
59434;SDS011;45241;49.768;8.636;2023-03-23T03:25:47;1.45;;;0.70;;
59434;SDS011;45241;49.768;8.636;2023-03-23T03:28:17;1.05;;;0.70;;
59434;SDS011;45241;49.768;8.636;2023-03-23T03:30:47;2.58;;;1.00;;
59434;SDS011;45241;49.768;8.636;2023-03-23T03:33:19;1.67;;;0.70;;
59434;SDS011;45241;49.768;8.636;2023-03-23T03:35:45;1.02;;;0.90;;
59434;SDS011;45241;49.768;8.636;2023-03-23T03:38:12;2.85;;;0.90;;
59434;SDS011;45241;49.768;8.636;2023-03-23T03:40:37;2.50;;;0.90;;
59434;SDS011;45241;49.768;8.636;2023-03-23T03:43:03;2.72;;;0.93;;
59434;SDS011;45241;49.768;8.636;2023-03-23T03:45:29;1.15;;;0.93;;
59434;SDS011;45241;49.768;8.636;2023-03-23T03:47:55;1.98;;;0.93;;
59434;SDS011;45241;49.768;8.636;2023-03-23T03:50:20;2.60;;;1.13;;
59434;SDS011;45241;49.768;8.636;2023-03-23T03:52:45;3.53;;;1.10;;
59434;SDS011;45241;49.768;8.636;2023-03-23T03:55:10;2.15;;;0.90;;
59434;SDS011;45241;49.768;8.636;2023-03-23T03:57:36;2.05;;;0.90;;
59434;SDS011;45241;49.768;8.636;2023-03-23T04:00:03;3.63;;;1.20;;
59434;SDS011;45241;49.768;8.636;2023-03-23T04:02:38;1.88;;;1.00;;
59434;SDS011;45241;49.768;8.636;2023-03-23T04:05:05;2.58;;;0.90;;
59434;SDS011;45241;49.768;8.636;2023-03-23T04:07:31;2.15;;;1.00;;
59434;SDS011;45241;49.768;8.636;2023-03-23T04:09:56;0.80;;;0.80;;
59434;SDS011;45241;49.768;8.636;2023-03-23T04:12:22;1.42;;;1.02;;
59434;SDS011;45241;49.768;8.636;2023-03-23T04:14:47;1.67;;;1.02;;
59434;SDS011;45241;49.768;8.636;2023-03-23T04:17:12;1.50;;;0.90;;
59434;SDS011;45241;49.768;8.636;2023-03-23T04:19:39;0.70;;;0.57;;
59434;SDS011;45241;49.768;8.636;2023-03-23T04:22:05;2.05;;;1.00;;
59434;SDS011;45241;49.768;8.636;2023-03-23T04:24:30;1.35;;;0.77;;
59434;SDS011;45241;49.768;8.636;2023-03-23T04:26:58;2.15;;;1.05;;
59434;SDS011;45241;49.768;8.636;2023-03-23T04:29:24;1.73;;;1.10;;
59434;SDS011;45241;49.768;8.636;2023-03-23T04:31:49;3.25;;;1.00;;
59434;SDS011;45241;49.768;8.636;2023-03-23T04:34:17;3.80;;;1.10;;
59434;SDS011;45241;49.768;8.636;2023-03-23T04:36:43;1.73;;;1.20;;
59434;SDS011;45241;49.768;8.636;2023-03-23T04:39:09;2.00;;;1.13;;
59434;SDS011;45241;49.768;8.636;2023-03-23T04:41:38;2.97;;;1.20;;
59434;SDS011;45241;49.768;8.636;2023-03-23T04:44:04;1.88;;;1.00;;
59434;SDS011;45241;49.768;8.636;2023-03-23T04:46:30;1.55;;;1.00;;
59434;SDS011;45241;49.768;8.636;2023-03-23T04:48:56;1.92;;;1.20;;
59434;SDS011;45241;49.768;8.636;2023-03-23T04:51:25;3.72;;;1.40;;
59434;SDS011;45241;49.768;8.636;2023-03-23T04:53:52;1.65;;;1.40;;
59434;SDS011;45241;49.768;8.636;2023-03-23T04:56:17;1.55;;;1.17;;
59434;SDS011;45241;49.768;8.636;2023-03-23T04:58:43;2.10;;;1.20;;
59434;SDS011;45241;49.768;8.636;2023-03-23T05:01:10;2.78;;;1.38;;
59434;SDS011;45241;49.768;8.636;2023-03-23T05:03:38;1.95;;;1.10;;
59434;SDS011;45241;49.768;8.636;2023-03-23T05:06:04;2.95;;;1.50;;
59434;SDS011;45241;49.768;8.636;2023-03-23T05:08:29;1.85;;;1.17;;
59434;SDS011;45241;49.768;8.636;2023-03-23T05:10:57;2.22;;;1.23;;
59434;SDS011;45241;49.768;8.636;2023-03-23T05:13:24;2.80;;;1.30;;
59434;SDS011;45241;49.768;8.636;2023-03-23T05:15:50;2.08;;;1.30;;
59434;SDS011;45241;49.768;8.636;2023-03-23T05:18:16;2.95;;;1.52;;
59434;SDS011;45241;49.768;8.636;2023-03-23T05:20:41;2.97;;;1.23;;
59434;SDS011;45241;49.768;8.636;2023-03-23T05:23:07;1.67;;;1.38;;
59434;SDS011;45241;49.768;8.636;2023-03-23T05:25:36;2.33;;;1.10;;
59434;SDS011;45241;49.768;8.636;2023-03-23T05:28:05;3.08;;;1.35;;
59434;SDS011;45241;49.768;8.636;2023-03-23T05:30:31;2.00;;;0.90;;
59434;SDS011;45241;49.768;8.636;2023-03-23T05:32:56;2.17;;;1.20;;
59434;SDS011;45241;49.768;8.636;2023-03-23T05:35:22;1.83;;;1.17;;
59434;SDS011;45241;49.768;8.636;2023-03-23T05:37:47;1.98;;;1.27;;
59434;SDS011;45241;49.768;8.636;2023-03-23T05:40:13;1.25;;;0.80;;
59434;SDS011;45241;49.768;8.636;2023-03-23T05:42:39;2.13;;;1.10;;
59434;SDS011;45241;49.768;8.636;2023-03-23T05:45:06;3.25;;;1.30;;
59434;SDS011;45241;49.768;8.636;2023-03-23T05:47:33;2.03;;;1.02;;
59434;SDS011;45241;49.768;8.636;2023-03-23T05:49:59;3.20;;;1.30;;
59434;SDS011;45241;49.768;8.636;2023-03-23T05:52:25;3.17;;;1.08;;
59434;SDS011;45241;49.768;8.636;2023-03-23T05:54:51;5.32;;;1.10;;
59434;SDS011;45241;49.768;8.636;2023-03-23T05:57:17;1.40;;;0.98;;
59434;SDS011;45241;49.768;8.636;2023-03-23T05:59:43;1.52;;;1.00;;
59434;SDS011;45241;49.768;8.636;2023-03-23T06:02:10;1.90;;;0.90;;
59434;SDS011;45241;49.768;8.636;2023-03-23T06:04:36;1.98;;;1.10;;
59434;SDS011;45241;49.768;8.636;2023-03-23T06:07:03;3.60;;;1.20;;
59434;SDS011;45241;49.768;8.636;2023-03-23T06:09:29;2.65;;;1.10;;
59434;SDS011;45241;49.768;8.636;2023-03-23T06:11:55;3.72;;;1.20;;
59434;SDS011;45241;49.768;8.636;2023-03-23T06:14:21;2.03;;;1.15;;
59434;SDS011;45241;49.768;8.636;2023-03-23T06:16:47;2.15;;;1.20;;
59434;SDS011;45241;49.768;8.636;2023-03-23T06:19:12;2.28;;;1.20;;
59434;SDS011;45241;49.768;8.636;2023-03-23T06:21:39;1.75;;;1.10;;
59434;SDS011;45241;49.768;8.636;2023-03-23T06:24:05;1.90;;;1.10;;
59434;SDS011;45241;49.768;8.636;2023-03-23T06:26:31;2.10;;;1.10;;
59434;SDS011;45241;49.768;8.636;2023-03-23T06:29:00;4.05;;;1.35;;
59434;SDS011;45241;49.768;8.636;2023-03-23T06:31:26;2.20;;;1.30;;
59434;SDS011;45241;49.768;8.636;2023-03-23T06:33:52;2.65;;;1.10;;
59434;SDS011;45241;49.768;8.636;2023-03-23T06:36:17;1.75;;;1.05;;
59434;SDS011;45241;49.768;8.636;2023-03-23T06:38:43;2.40;;;1.00;;
59434;SDS011;45241;49.768;8.636;2023-03-23T06:41:09;3.05;;;1.48;;
59434;SDS011;45241;49.768;8.636;2023-03-23T06:43:35;4.25;;;1.17;;
59434;SDS011;45241;49.768;8.636;2023-03-23T06:46:04;2.60;;;1.27;;
59434;SDS011;45241;49.768;8.636;2023-03-23T06:48:33;1.60;;;1.35;;
59434;SDS011;45241;49.768;8.636;2023-03-23T06:50:58;4.75;;;1.40;;
59434;SDS011;45241;49.768;8.636;2023-03-23T06:53:24;4.20;;;1.17;;
59434;SDS011;45241;49.768;8.636;2023-03-23T06:55:49;3.25;;;1.20;;
59434;SDS011;45241;49.768;8.636;2023-03-23T06:58:15;2.05;;;1.20;;
59434;SDS011;45241;49.768;8.636;2023-03-23T07:00:41;1.77;;;1.10;;
59434;SDS011;45241;49.768;8.636;2023-03-23T07:03:06;1.70;;;1.05;;
59434;SDS011;45241;49.768;8.636;2023-03-23T07:05:33;3.40;;;1.20;;
59434;SDS011;45241;49.768;8.636;2023-03-23T07:08:00;2.90;;;1.25;;
59434;SDS011;45241;49.768;8.636;2023-03-23T07:10:27;1.20;;;1.10;;
59434;SDS011;45241;49.768;8.636;2023-03-23T07:12:53;2.78;;;1.40;;
59434;SDS011;45241;49.768;8.636;2023-03-23T07:15:18;1.40;;;1.10;;
59434;SDS011;45241;49.768;8.636;2023-03-23T07:17:43;3.72;;;1.30;;
59434;SDS011;45241;49.768;8.636;2023-03-23T07:20:09;2.10;;;1.23;;
59434;SDS011;45241;49.768;8.636;2023-03-23T07:22:35;1.92;;;1.02;;
59434;SDS011;45241;49.768;8.636;2023-03-23T07:25:00;1.95;;;1.20;;
59434;SDS011;45241;49.768;8.636;2023-03-23T07:27:25;2.15;;;1.02;;
59434;SDS011;45241;49.768;8.636;2023-03-23T07:29:51;4.28;;;1.08;;
59434;SDS011;45241;49.768;8.636;2023-03-23T07:32:16;2.45;;;1.10;;
59434;SDS011;45241;49.768;8.636;2023-03-23T07:34:42;1.38;;;1.00;;
59434;SDS011;45241;49.768;8.636;2023-03-23T07:37:08;1.80;;;1.15;;
59434;SDS011;45241;49.768;8.636;2023-03-23T07:39:34;2.85;;;1.15;;
59434;SDS011;45241;49.768;8.636;2023-03-23T07:42:00;1.35;;;0.88;;
59434;SDS011;45241;49.768;8.636;2023-03-23T07:44:25;1.23;;;0.90;;
59434;SDS011;45241;49.768;8.636;2023-03-23T07:46:51;1.30;;;0.82;;
59434;SDS011;45241;49.768;8.636;2023-03-23T07:49:16;2.08;;;0.80;;
59434;SDS011;45241;49.768;8.636;2023-03-23T07:51:42;3.83;;;1.00;;
59434;SDS011;45241;49.768;8.636;2023-03-23T07:54:08;1.35;;;1.00;;
59434;SDS011;45241;49.768;8.636;2023-03-23T07:56:34;1.77;;;1.00;;
59434;SDS011;45241;49.768;8.636;2023-03-23T07:59:00;3.05;;;1.13;;
59434;SDS011;45241;49.768;8.636;2023-03-23T08:01:26;1.27;;;0.98;;
59434;SDS011;45241;49.768;8.636;2023-03-23T08:03:51;1.88;;;1.00;;
59434;SDS011;45241;49.768;8.636;2023-03-23T08:06:19;1.15;;;0.90;;
59434;SDS011;45241;49.768;8.636;2023-03-23T08:08:46;1.20;;;0.70;;
59434;SDS011;45241;49.768;8.636;2023-03-23T08:11:11;2.88;;;0.82;;
59434;SDS011;45241;49.768;8.636;2023-03-23T08:13:38;0.85;;;0.70;;
59434;SDS011;45241;49.768;8.636;2023-03-23T08:16:04;1.58;;;0.90;;
59434;SDS011;45241;49.768;8.636;2023-03-23T08:18:30;1.83;;;0.90;;
59434;SDS011;45241;49.768;8.636;2023-03-23T08:20:56;1.67;;;0.98;;
59434;SDS011;45241;49.768;8.636;2023-03-23T08:23:22;1.27;;;0.80;;
59434;SDS011;45241;49.768;8.636;2023-03-23T08:25:48;1.63;;;0.80;;
59434;SDS011;45241;49.768;8.636;2023-03-23T08:28:13;1.90;;;0.88;;
59434;SDS011;45241;49.768;8.636;2023-03-23T08:30:39;1.80;;;0.73;;
59434;SDS011;45241;49.768;8.636;2023-03-23T08:33:05;1.25;;;0.70;;
59434;SDS011;45241;49.768;8.636;2023-03-23T08:35:31;1.80;;;0.90;;
59434;SDS011;45241;49.768;8.636;2023-03-23T08:37:57;1.58;;;0.82;;
59434;SDS011;45241;49.768;8.636;2023-03-23T08:40:23;1.77;;;1.05;;
59434;SDS011;45241;49.768;8.636;2023-03-23T08:42:51;1.73;;;1.08;;
59434;SDS011;45241;49.768;8.636;2023-03-23T08:45:18;0.95;;;0.77;;
59434;SDS011;45241;49.768;8.636;2023-03-23T08:47:46;1.70;;;0.70;;
59434;SDS011;45241;49.768;8.636;2023-03-23T08:50:19;3.15;;;1.00;;
59434;SDS011;45241;49.768;8.636;2023-03-23T08:52:47;1.65;;;0.80;;
59434;SDS011;45241;49.768;8.636;2023-03-23T08:55:14;0.65;;;0.60;;
59434;SDS011;45241;49.768;8.636;2023-03-23T08:57:40;2.00;;;1.00;;
59434;SDS011;45241;49.768;8.636;2023-03-23T09:00:07;2.70;;;0.98;;
59434;SDS011;45241;49.768;8.636;2023-03-23T09:02:39;3.28;;;1.30;;
59434;SDS011;45241;49.768;8.636;2023-03-23T09:05:07;1.10;;;1.00;;
59434;SDS011;45241;49.768;8.636;2023-03-23T09:07:33;1.48;;;1.00;;
59434;SDS011;45241;49.768;8.636;2023-03-23T09:09:59;1.00;;;0.70;;
59434;SDS011;45241;49.768;8.636;2023-03-23T09:12:24;1.42;;;0.80;;
59434;SDS011;45241;49.768;8.636;2023-03-23T09:14:49;1.38;;;0.80;;
59434;SDS011;45241;49.768;8.636;2023-03-23T09:17:15;3.22;;;0.90;;
59434;SDS011;45241;49.768;8.636;2023-03-23T09:19:40;1.98;;;1.00;;
59434;SDS011;45241;49.768;8.636;2023-03-23T09:22:06;3.03;;;1.00;;
59434;SDS011;45241;49.768;8.636;2023-03-23T09:24:33;1.30;;;1.00;;
59434;SDS011;45241;49.768;8.636;2023-03-23T09:26:58;2.97;;;1.10;;
59434;SDS011;45241;49.768;8.636;2023-03-23T09:29:24;1.25;;;1.00;;
59434;SDS011;45241;49.768;8.636;2023-03-23T09:31:51;2.47;;;1.05;;
59434;SDS011;45241;49.768;8.636;2023-03-23T09:34:17;5.50;;;1.00;;
59434;SDS011;45241;49.768;8.636;2023-03-23T09:36:43;1.13;;;0.90;;
59434;SDS011;45241;49.768;8.636;2023-03-23T09:39:09;2.75;;;0.90;;
59434;SDS011;45241;49.768;8.636;2023-03-23T09:50:16;0.95;;;0.80;;
59434;SDS011;45241;49.768;8.636;2023-03-23T09:52:28;2.05;;;1.00;;
59434;SDS011;45241;49.768;8.636;2023-03-23T09:55:04;1.38;;;0.90;;
59434;SDS011;45241;49.768;8.636;2023-03-23T09:57:53;4.20;;;0.90;;
59434;SDS011;45241;49.768;8.636;2023-03-23T10:00:24;1.52;;;0.73;;
59434;SDS011;45241;49.768;8.636;2023-03-23T10:03:15;1.58;;;0.80;;
59434;SDS011;45241;49.768;8.636;2023-03-23T10:05:46;1.30;;;1.00;;
59434;SDS011;45241;49.768;8.636;2023-03-23T10:08:22;1.58;;;0.80;;
59434;SDS011;45241;49.768;8.636;2023-03-23T10:11:02;1.77;;;0.80;;
59434;SDS011;45241;49.768;8.636;2023-03-23T10:13:53;1.27;;;1.00;;
59434;SDS011;45241;49.768;8.636;2023-03-23T10:16:19;1.35;;;0.73;;
59434;SDS011;45241;49.768;8.636;2023-03-23T10:18:50;1.38;;;0.75;;
59434;SDS011;45241;49.768;8.636;2023-03-23T10:21:24;1.48;;;0.80;;
59434;SDS011;45241;49.768;8.636;2023-03-23T10:23:54;3.35;;;0.80;;
59434;SDS011;45241;49.768;8.636;2023-03-23T10:29:12;1.40;;;0.80;;
59434;SDS011;45241;49.768;8.636;2023-03-23T10:31:55;0.85;;;0.65;;
59434;SDS011;45241;49.768;8.636;2023-03-23T10:34:47;2.03;;;0.75;;
59434;SDS011;45241;49.768;8.636;2023-03-23T10:42:29;1.38;;;0.70;;
59434;SDS011;45241;49.768;8.636;2023-03-23T10:44:58;0.93;;;0.55;;
59434;SDS011;45241;49.768;8.636;2023-03-23T10:47:25;1.27;;;0.68;;
59434;SDS011;45241;49.768;8.636;2023-03-23T10:49:55;1.48;;;0.50;;
59434;SDS011;45241;49.768;8.636;2023-03-23T10:54:57;1.98;;;0.68;;
59434;SDS011;45241;49.768;8.636;2023-03-23T10:57:28;0.80;;;0.60;;
59434;SDS011;45241;49.768;8.636;2023-03-23T11:00:02;2.17;;;0.90;;
59434;SDS011;45241;49.768;8.636;2023-03-23T11:05:31;1.15;;;0.80;;
59434;SDS011;45241;49.768;8.636;2023-03-23T11:08:00;2.47;;;1.10;;
59434;SDS011;45241;49.768;8.636;2023-03-23T11:10:27;1.23;;;0.90;;
59434;SDS011;45241;49.768;8.636;2023-03-23T11:13:00;1.05;;;0.93;;
59434;SDS011;45241;49.768;8.636;2023-03-23T11:17:56;1.00;;;0.90;;
59434;SDS011;45241;49.768;8.636;2023-03-23T11:20:26;1.40;;;0.77;;
59434;SDS011;45241;49.768;8.636;2023-03-23T11:22:53;2.03;;;0.80;;
59434;SDS011;45241;49.768;8.636;2023-03-23T11:25:20;2.38;;;0.63;;
59434;SDS011;45241;49.768;8.636;2023-03-23T11:27:46;0.77;;;0.68;;
59434;SDS011;45241;49.768;8.636;2023-03-23T11:30:19;1.23;;;0.73;;
59434;SDS011;45241;49.768;8.636;2023-03-23T11:32:48;1.75;;;0.90;;
59434;SDS011;45241;49.768;8.636;2023-03-23T11:35:16;1.88;;;0.70;;
59434;SDS011;45241;49.768;8.636;2023-03-23T11:40:21;2.42;;;0.90;;
59434;SDS011;45241;49.768;8.636;2023-03-23T11:45:36;1.65;;;0.90;;
59434;SDS011;45241;49.768;8.636;2023-03-23T11:51:02;0.80;;;0.60;;
59434;SDS011;45241;49.768;8.636;2023-03-23T11:56:23;1.33;;;0.70;;
59434;SDS011;45241;49.768;8.636;2023-03-23T11:58:53;1.17;;;0.55;;
59434;SDS011;45241;49.768;8.636;2023-03-23T12:01:36;2.20;;;0.70;;
59434;SDS011;45241;49.768;8.636;2023-03-23T12:09:36;1.75;;;0.77;;
59434;SDS011;45241;49.768;8.636;2023-03-23T12:15:01;0.82;;;0.60;;
59434;SDS011;45241;49.768;8.636;2023-03-23T12:17:48;1.10;;;0.60;;
59434;SDS011;45241;49.768;8.636;2023-03-23T12:25:52;0.82;;;0.68;;
59434;SDS011;45241;49.768;8.636;2023-03-23T12:28:33;1.15;;;0.60;;
59434;SDS011;45241;49.768;8.636;2023-03-23T12:34:10;1.38;;;0.70;;
59434;SDS011;45241;49.768;8.636;2023-03-23T12:39:40;1.25;;;0.70;;
59434;SDS011;45241;49.768;8.636;2023-03-23T12:44:50;1.10;;;0.80;;
59434;SDS011;45241;49.768;8.636;2023-03-23T12:47:26;2.33;;;0.77;;
59434;SDS011;45241;49.768;8.636;2023-03-23T12:52:45;0.70;;;0.68;;
59434;SDS011;45241;49.768;8.636;2023-03-23T12:55:22;1.40;;;0.50;;
59434;SDS011;45241;49.768;8.636;2023-03-23T13:09:03;0.80;;;0.65;;
59434;SDS011;45241;49.768;8.636;2023-03-23T13:11:32;0.88;;;0.60;;
59434;SDS011;45241;49.768;8.636;2023-03-23T13:24:24;3.83;;;0.95;;
59434;SDS011;45241;49.768;8.636;2023-03-23T13:26:52;1.55;;;0.60;;
59434;SDS011;45241;49.768;8.636;2023-03-23T13:29:22;1.05;;;0.70;;
59434;SDS011;45241;49.768;8.636;2023-03-23T13:34:30;2.00;;;0.80;;
59434;SDS011;45241;49.768;8.636;2023-03-23T13:36:57;0.88;;;0.38;;
59434;SDS011;45241;49.768;8.636;2023-03-23T13:39:28;1.10;;;0.57;;
59434;SDS011;45241;49.768;8.636;2023-03-23T13:47:24;0.95;;;0.43;;
59434;SDS011;45241;49.768;8.636;2023-03-23T13:52:22;1.00;;;0.60;;
59434;SDS011;45241;49.768;8.636;2023-03-23T14:05:38;0.77;;;0.50;;
59434;SDS011;45241;49.768;8.636;2023-03-23T14:08:11;0.95;;;0.50;;
59434;SDS011;45241;49.768;8.636;2023-03-23T14:10:40;1.23;;;0.50;;
59434;SDS011;45241;49.768;8.636;2023-03-23T14:13:19;0.57;;;0.50;;
59434;SDS011;45241;49.768;8.636;2023-03-23T14:16:00;1.23;;;0.60;;
59434;SDS011;45241;49.768;8.636;2023-03-23T14:18:31;1.60;;;0.50;;
59434;SDS011;45241;49.768;8.636;2023-03-23T14:21:00;2.85;;;0.70;;
59434;SDS011;45241;49.768;8.636;2023-03-23T14:23:27;1.17;;;0.40;;
59434;SDS011;45241;49.768;8.636;2023-03-23T14:26:00;1.77;;;0.45;;
59434;SDS011;45241;49.768;8.636;2023-03-23T14:28:36;1.52;;;0.50;;
59434;SDS011;45241;49.768;8.636;2023-03-23T14:31:04;1.58;;;0.38;;
59434;SDS011;45241;49.768;8.636;2023-03-23T14:33:30;0.88;;;0.50;;
59434;SDS011;45241;49.768;8.636;2023-03-23T14:35:57;1.02;;;0.60;;
59434;SDS011;45241;49.768;8.636;2023-03-23T14:38:24;1.17;;;0.60;;
59434;SDS011;45241;49.768;8.636;2023-03-23T14:40:59;0.85;;;0.50;;
59434;SDS011;45241;49.768;8.636;2023-03-23T14:43:26;0.80;;;0.50;;
59434;SDS011;45241;49.768;8.636;2023-03-23T14:45:52;1.27;;;0.60;;
59434;SDS011;45241;49.768;8.636;2023-03-23T14:48:20;3.17;;;0.70;;
59434;SDS011;45241;49.768;8.636;2023-03-23T14:50:51;1.25;;;0.70;;
59434;SDS011;45241;49.768;8.636;2023-03-23T14:53:24;0.80;;;0.70;;
59434;SDS011;45241;49.768;8.636;2023-03-23T14:56:03;1.17;;;0.70;;
59434;SDS011;45241;49.768;8.636;2023-03-23T14:58:43;0.70;;;0.68;;
59434;SDS011;45241;49.768;8.636;2023-03-23T15:01:23;1.15;;;0.55;;
59434;SDS011;45241;49.768;8.636;2023-03-23T15:04:14;1.95;;;0.70;;
59434;SDS011;45241;49.768;8.636;2023-03-23T15:06:38;4.55;;;0.80;;
59434;SDS011;45241;49.768;8.636;2023-03-23T15:09:07;2.22;;;0.80;;
59434;SDS011;45241;49.768;8.636;2023-03-23T15:11:37;1.13;;;0.60;;
59434;SDS011;45241;49.768;8.636;2023-03-23T15:14:17;5.15;;;0.80;;
59434;SDS011;45241;49.768;8.636;2023-03-23T15:16:48;1.15;;;0.65;;
59434;SDS011;45241;49.768;8.636;2023-03-23T15:19:21;1.83;;;0.70;;
59434;SDS011;45241;49.768;8.636;2023-03-23T15:21:56;0.80;;;0.80;;
59434;SDS011;45241;49.768;8.636;2023-03-23T15:29:51;1.05;;;0.90;;
59434;SDS011;45241;49.768;8.636;2023-03-23T15:32:24;1.48;;;0.52;;
59434;SDS011;45241;49.768;8.636;2023-03-23T15:34:52;1.85;;;0.90;;
59434;SDS011;45241;49.768;8.636;2023-03-23T15:37:24;0.75;;;0.60;;
59434;SDS011;45241;49.768;8.636;2023-03-23T15:39:52;1.00;;;0.70;;
59434;SDS011;45241;49.768;8.636;2023-03-23T15:42:22;0.90;;;0.60;;
59434;SDS011;45241;49.768;8.636;2023-03-23T15:44:58;2.60;;;0.90;;
59434;SDS011;45241;49.768;8.636;2023-03-23T15:50:19;1.58;;;0.80;;
59434;SDS011;45241;49.768;8.636;2023-03-23T15:52:57;0.98;;;0.60;;
59434;SDS011;45241;49.768;8.636;2023-03-23T15:55:27;1.10;;;0.73;;
59434;SDS011;45241;49.768;8.636;2023-03-23T15:57:54;1.23;;;0.73;;
59434;SDS011;45241;49.768;8.636;2023-03-23T16:00:22;0.73;;;0.50;;
59434;SDS011;45241;49.768;8.636;2023-03-23T16:02:55;1.05;;;0.80;;
59434;SDS011;45241;49.768;8.636;2023-03-23T16:05:23;2.35;;;0.70;;
59434;SDS011;45241;49.768;8.636;2023-03-23T16:07:49;0.70;;;0.50;;
59434;SDS011;45241;49.768;8.636;2023-03-23T16:10:16;0.95;;;0.68;;
59434;SDS011;45241;49.768;8.636;2023-03-23T16:12:44;1.25;;;0.60;;
59434;SDS011;45241;49.768;8.636;2023-03-23T16:15:10;0.50;;;0.50;;
59434;SDS011;45241;49.768;8.636;2023-03-23T16:17:36;1.58;;;0.63;;
59434;SDS011;45241;49.768;8.636;2023-03-23T16:20:04;2.08;;;0.90;;
59434;SDS011;45241;49.768;8.636;2023-03-23T16:22:35;1.05;;;0.60;;
59434;SDS011;45241;49.768;8.636;2023-03-23T16:25:00;1.35;;;0.75;;
59434;SDS011;45241;49.768;8.636;2023-03-23T16:27:26;1.23;;;0.80;;
59434;SDS011;45241;49.768;8.636;2023-03-23T16:29:51;1.05;;;0.75;;
59434;SDS011;45241;49.768;8.636;2023-03-23T16:32:16;1.48;;;0.60;;
59434;SDS011;45241;49.768;8.636;2023-03-23T16:34:42;2.55;;;1.40;;
59434;SDS011;45241;49.768;8.636;2023-03-23T16:37:08;1.02;;;0.60;;
59434;SDS011;45241;49.768;8.636;2023-03-23T16:39:36;1.10;;;0.77;;
59434;SDS011;45241;49.768;8.636;2023-03-23T16:42:01;3.72;;;0.85;;
59434;SDS011;45241;49.768;8.636;2023-03-23T16:44:26;1.13;;;0.70;;
59434;SDS011;45241;49.768;8.636;2023-03-23T16:46:52;1.35;;;0.73;;
59434;SDS011;45241;49.768;8.636;2023-03-23T16:49:17;1.52;;;0.70;;
59434;SDS011;45241;49.768;8.636;2023-03-23T16:51:42;1.30;;;0.80;;
59434;SDS011;45241;49.768;8.636;2023-03-23T16:54:08;1.73;;;0.90;;
59434;SDS011;45241;49.768;8.636;2023-03-23T16:56:33;0.95;;;0.80;;
59434;SDS011;45241;49.768;8.636;2023-03-23T16:58:58;1.55;;;0.90;;
59434;SDS011;45241;49.768;8.636;2023-03-23T17:01:24;0.90;;;0.80;;
59434;SDS011;45241;49.768;8.636;2023-03-23T17:03:49;2.25;;;0.93;;
59434;SDS011;45241;49.768;8.636;2023-03-23T17:06:14;1.30;;;0.90;;
59434;SDS011;45241;49.768;8.636;2023-03-23T17:08:39;1.35;;;1.00;;
59434;SDS011;45241;49.768;8.636;2023-03-23T17:11:05;1.00;;;0.80;;